岡山空港の過去48時間の天気

岡山空港 (Okayama)

現在時刻: 12/8 19:41 JST (12/8 10:41 UTC) 以下の時間は現地時間です。

過去48時間のMETAR気象情報
時間 風向 風速(m/s) 視程 気温(℃) 湿度(%) 気圧(hPa) 天気現象
8 19:00 不定 1 10km以上 7 70 1028
8 18:00 不定 1 10km以上 8 66 1027
8 17:00 西 2 10km以上 9 57 1026
8 16:00 4 10km以上 11 50 1026
8 15:00 北北東 6 10km以上 11 50 1025
8 14:00 4 10km以上 13 47 1025
8 13:27 北西 2 10km以上 12 50 1025
8 13:00 6 10km以上 12 50 1025
8 12:00 3 10km以上 13 47 1025
8 11:00 不定 2 10km以上 12 50 1025
8 10:00 北北東 3 10km以上 12 58 1025
8 09:00 不定 2 10km以上 11 58 1025
8 08:00 西南西 2 10km以上 10 58 1025 周辺でしゅう雨
8 07:00 不定 1 10km以上 7 81 1024
8 06:15 西南西 2 10km以上 8 71 1023
RJOB 081000Z VRB02KT 9999 FEW025 07/02 Q1028
RJOB 080900Z VRB02KT 9999 FEW025 08/02 Q1027
RJOB 080800Z 28004KT 9999 FEW030 SCT040 09/01 Q1026
RJOB 080700Z 01008KT 310V050 9999 FEW030 SCT040 11/01 Q1026
RJOB 080600Z 02011KT 330V050 9999 FEW030 SCT040 11/01 Q1025
RJOB 080500Z 01008KT 310V040 9999 FEW030 BKN045 13/02 Q1025
RJOB 080427Z 31004KT 240V030 9999 FEW030 BKN045 12/02 Q1025 RMK 1CU030 5CU045 A3027
RJOB 080400Z 01011KT 300V050 9999 FEW030 BKN045 12/02 Q1025
RJOB 080300Z 36006KT 270V050 9999 FEW030 SCT045 13/02 Q1025
RJOB 080200Z VRB03KT 9999 FEW025 BKN045 12/02 Q1025
RJOB 080100Z 02005KT 340V060 9999 FEW025 SCT050 12/04 Q1025
RJOB 080000Z VRB03KT 9999 FEW020 SCT050 11/03 Q1025
RJOB 072300Z 25003KT 220V360 9999 VCSH FEW020 BKN045 10/02 Q1025
RJOB 072200Z VRB02KT 9999 FEW020 BKN045 07/04 Q1024
RJOB 072115Z 25003KT 210V300 9999 FEW020 BKN045 08/03 Q1023 RMK 1CU020 5CU045 A3023